createdAt,value
2023-04-30T00:00:20.388Z,21.799999
2023-04-30T00:01:28.713Z,21.799999
2023-04-30T00:02:37.416Z,23.5
2023-04-30T00:03:45.634Z,23.5
2023-04-30T00:04:53.939Z,23.5
2023-04-30T00:06:02.486Z,24.299999
2023-04-30T00:07:10.791Z,24.299999
2023-04-30T00:08:19.124Z,24.299999
2023-04-30T00:09:27.665Z,24.1
2023-04-30T00:10:36.005Z,24.1
2023-04-30T00:11:44.309Z,24.1
2023-04-30T00:12:52.846Z,23.299999
2023-04-30T00:14:01.183Z,23.299999
2023-04-30T00:15:09.500Z,23.299999
2023-04-30T00:16:18.029Z,24.6
2023-04-30T00:17:26.399Z,24.6
2023-04-30T00:18:34.694Z,24.6
2023-04-30T00:19:43.235Z,24.1
2023-04-30T00:20:51.560Z,24.1
2023-04-30T00:21:59.885Z,24.1
2023-04-30T00:23:08.416Z,24.6
2023-04-30T00:24:16.765Z,24.6
2023-04-30T00:25:25.074Z,24.6
2023-04-30T00:26:33.640Z,22.700001
2023-04-30T00:27:41.933Z,22.700001
2023-04-30T00:28:50.252Z,22.700001
2023-04-30T00:29:58.800Z,24.6
2023-04-30T00:31:07.150Z,24.6
2023-04-30T00:32:15.529Z,24.6
2023-04-30T00:33:23.988Z,24.1
2023-04-30T00:34:32.348Z,24.1
2023-04-30T00:35:40.657Z,24.1
2023-04-30T00:36:49.216Z,23.200001
2023-04-30T00:37:57.534Z,23.200001
2023-04-30T00:39:05.882Z,23.200001
2023-04-30T00:40:14.409Z,23.6
2023-04-30T00:41:22.730Z,23.6
2023-04-30T00:42:31.089Z,23.6
2023-04-30T00:43:39.601Z,23.700001
2023-04-30T00:44:47.923Z,23.700001
2023-04-30T00:45:56.254Z,23.700001
2023-04-30T00:47:04.805Z,22.299999
2023-04-30T00:48:13.137Z,22.299999
2023-04-30T00:49:21.471Z,22.299999
2023-04-30T00:50:30.010Z,25.5
2023-04-30T00:51:38.345Z,25.5
2023-04-30T00:52:46.685Z,25.5
2023-04-30T00:53:55.219Z,23.5
2023-04-30T00:55:03.548Z,23.5
2023-04-30T00:56:11.854Z,23.5
2023-04-30T00:57:20.388Z,23.5
2023-04-30T00:58:28.798Z,23.5
2023-04-30T00:59:37.047Z,23.5
2023-04-30T01:00:45.569Z,23.9
2023-04-30T01:01:53.890Z,23.9
2023-04-30T01:03:02.289Z,23.9
2023-04-30T01:04:10.799Z,23.299999
2023-04-30T01:05:19.132Z,23.299999
2023-04-30T01:06:27.512Z,23.299999
2023-04-30T01:07:35.996Z,24.5
2023-04-30T01:08:44.326Z,24.5
2023-04-30T01:09:52.894Z,24.5
2023-04-30T01:11:01.181Z,21.9
2023-04-30T01:12:09.496Z,21.9
2023-04-30T01:13:17.814Z,21.9
2023-04-30T01:14:26.383Z,22.5
2023-04-30T01:15:34.712Z,22.5
2023-04-30T01:16:43.000Z,22.5
2023-04-30T01:17:51.595Z,23.1
2023-04-30T01:18:59.925Z,23.1
2023-04-30T01:20:08.208Z,23.1
2023-04-30T01:21:16.739Z,23.700001
2023-04-30T01:22:25.308Z,23.700001
2023-04-30T01:23:33.565Z,23.700001
2023-04-30T01:24:42.097Z,24.1
2023-04-30T01:25:50.432Z,24.1
2023-04-30T01:26:58.742Z,24.1
2023-04-30T01:28:07.282Z,23.1
2023-04-30T01:29:15.627Z,23.1
2023-04-30T01:30:23.992Z,23.1
2023-04-30T01:31:32.582Z,22.9
2023-04-30T01:32:40.824Z,22.9
2023-04-30T01:33:49.154Z,22.9
2023-04-30T01:34:57.693Z,24.1
2023-04-30T01:36:06.007Z,24.1
2023-04-30T01:37:14.350Z,24.1
2023-04-30T01:38:22.900Z,25.6
2023-04-30T01:39:31.261Z,25.6
2023-04-30T01:40:39.581Z,25.6
2023-04-30T01:41:48.131Z,24.700001
2023-04-30T01:42:56.456Z,24.700001
2023-04-30T01:44:04.793Z,24.700001
2023-04-30T01:45:13.320Z,23.4
2023-04-30T01:46:21.705Z,23.4
2023-04-30T01:47:30.022Z,23.4
2023-04-30T01:48:38.525Z,22
2023-04-30T01:49:46.865Z,22
2023-04-30T01:50:55.177Z,22
2023-04-30T01:52:03.707Z,25.9
2023-04-30T01:53:12.061Z,25.9
2023-04-30T01:54:20.394Z,25.9
2023-04-30T01:55:28.945Z,25.9
2023-04-30T01:56:37.274Z,25.9
2023-04-30T01:57:45.602Z,25.9
2023-04-30T01:58:54.131Z,25.700001
2023-04-30T02:00:02.461Z,25.700001
2023-04-30T02:01:10.784Z,25.700001
2023-04-30T02:02:19.335Z,24.1
2023-04-30T02:03:27.695Z,24.1
2023-04-30T02:04:35.981Z,24.1
2023-04-30T02:05:44.517Z,24.5
2023-04-30T02:06:52.883Z,24.5
2023-04-30T02:08:01.200Z,24.5
2023-04-30T02:09:09.758Z,26.700001
2023-04-30T02:10:18.065Z,26.700001
2023-04-30T02:11:26.388Z,26.700001
2023-04-30T02:12:34.920Z,22.799999
2023-04-30T02:13:43.228Z,22.799999
2023-04-30T02:14:51.572Z,22.799999
2023-04-30T02:16:00.154Z,24.6
2023-04-30T02:17:08.423Z,24.6
2023-04-30T02:18:16.822Z,24.6
2023-04-30T02:19:25.306Z,25.5
2023-04-30T02:20:33.644Z,25.5
2023-04-30T02:21:41.963Z,25.5
2023-04-30T02:22:50.497Z,24.200001
2023-04-30T02:23:58.834Z,24.200001
2023-04-30T02:25:07.466Z,24.200001
2023-04-30T02:26:15.988Z,23.4
2023-04-30T02:27:24.294Z,23.4
2023-04-30T02:28:32.636Z,23.4
2023-04-30T02:29:41.186Z,23.9
2023-04-30T02:30:49.510Z,23.9
2023-04-30T02:31:57.883Z,23.9
2023-04-30T02:33:06.388Z,26.200001
2023-04-30T02:34:14.729Z,26.200001
2023-04-30T02:35:23.023Z,26.200001
2023-04-30T02:36:31.589Z,23.1
2023-04-30T02:37:39.919Z,23.1
2023-04-30T02:38:48.247Z,23.1
2023-04-30T02:39:56.849Z,23.200001
2023-04-30T02:41:05.099Z,23.200001
2023-04-30T02:42:13.444Z,23.200001
2023-04-30T02:43:21.975Z,22.9
2023-04-30T02:44:30.293Z,22.9
2023-04-30T02:45:38.666Z,22.9
2023-04-30T02:46:47.140Z,23.799999
2023-04-30T02:47:55.471Z,23.799999
2023-04-30T02:49:03.794Z,23.799999
2023-04-30T02:50:12.332Z,24.200001
2023-04-30T02:51:20.625Z,24.200001
2023-04-30T02:52:28.935Z,24.200001
2023-04-30T02:53:37.465Z,24.799999
2023-04-30T02:54:45.817Z,24.799999
2023-04-30T02:55:54.149Z,24.799999
2023-04-30T02:57:02.678Z,23.1
2023-04-30T02:58:10.990Z,23.1
2023-04-30T02:59:19.322Z,23.1
2023-04-30T03:00:27.835Z,25.200001
2023-04-30T03:01:36.206Z,25.200001
2023-04-30T03:02:44.605Z,25.200001
2023-04-30T03:03:53.047Z,22.200001
2023-04-30T03:05:01.389Z,22.200001
2023-04-30T03:06:10.163Z,22.200001
2023-04-30T03:07:18.268Z,19.700001
2023-04-30T03:08:26.620Z,19.700001
2023-04-30T03:09:34.925Z,19.700001
2023-04-30T03:10:43.452Z,18.1
2023-04-30T03:11:51.802Z,18.1
2023-04-30T03:13:00.135Z,18.1
2023-04-30T03:14:08.665Z,21.299999
2023-04-30T03:15:16.999Z,21.299999
2023-04-30T03:16:25.354Z,21.299999
2023-04-30T03:17:33.859Z,19.1
2023-04-30T03:18:42.154Z,19.1
2023-04-30T03:19:50.491Z,19.1
2023-04-30T03:20:59.034Z,20.5
2023-04-30T03:22:07.380Z,20.5
2023-04-30T03:23:15.670Z,20.5
2023-04-30T03:24:24.234Z,19.9
2023-04-30T03:25:32.572Z,19.9
2023-04-30T03:26:40.886Z,19.9
2023-04-30T03:27:49.442Z,17.799999
2023-04-30T03:28:57.779Z,17.799999
2023-04-30T03:30:06.075Z,17.799999
2023-04-30T03:31:14.642Z,17.1
2023-04-30T03:32:22.976Z,17.1
2023-04-30T03:33:31.286Z,17.1
2023-04-30T03:34:39.800Z,16.200001
2023-04-30T03:35:48.113Z,16.200001
2023-04-30T03:36:56.440Z,16.200001
2023-04-30T03:38:04.972Z,18.5
2023-04-30T03:39:13.284Z,18.5
2023-04-30T03:40:21.605Z,18.5
2023-04-30T03:41:30.163Z,17.799999
2023-04-30T03:42:38.470Z,17.799999
2023-04-30T03:43:46.807Z,17.799999
2023-04-30T03:44:55.366Z,18.1
2023-04-30T03:46:04.011Z,18.1
2023-04-30T03:47:12.071Z,18.1
2023-04-30T03:48:20.616Z,17.299999
2023-04-30T03:49:28.944Z,17.299999
2023-04-30T03:50:37.281Z,17.299999
2023-04-30T03:51:45.812Z,17
2023-04-30T03:52:54.122Z,17
2023-04-30T03:54:02.469Z,17
2023-04-30T03:55:10.970Z,18.299999
2023-04-30T03:56:19.276Z,18.299999
2023-04-30T03:57:27.601Z,18.299999
2023-04-30T03:58:36.150Z,17
2023-04-30T03:59:44.465Z,17
2023-04-30T04:00:52.799Z,17
2023-04-30T04:02:01.367Z,19.5
2023-04-30T04:03:09.721Z,19.5
2023-04-30T04:04:18.118Z,19.5
2023-04-30T04:05:26.558Z,17.1
2023-04-30T04:06:34.937Z,17.1
2023-04-30T04:07:43.203Z,17.1
2023-04-30T04:08:51.757Z,19.1
2023-04-30T04:10:00.157Z,19.1
2023-04-30T04:11:08.409Z,19.1
2023-04-30T04:12:16.937Z,17.799999
2023-04-30T04:13:25.276Z,17.799999
2023-04-30T04:14:33.639Z,17.799999
2023-04-30T04:15:42.179Z,15.7
2023-04-30T04:16:50.479Z,15.7
2023-04-30T04:17:58.852Z,15.7
2023-04-30T04:19:07.349Z,17.4
2023-04-30T04:20:15.676Z,17.4
2023-04-30T04:21:24.015Z,17.4
2023-04-30T04:22:32.555Z,15.2
2023-04-30T04:23:40.881Z,15.2
2023-04-30T04:24:49.195Z,15.2
2023-04-30T04:25:57.768Z,16.5
2023-04-30T04:27:06.077Z,16.5
2023-04-30T04:28:14.396Z,16.5
2023-04-30T04:29:22.949Z,17.799999
2023-04-30T04:30:31.277Z,17.799999
2023-04-30T04:31:39.612Z,17.799999
2023-04-30T04:32:48.232Z,15.2
2023-04-30T04:33:56.500Z,15.2
2023-04-30T04:35:04.831Z,15.2
2023-04-30T04:36:13.365Z,17
2023-04-30T04:37:21.684Z,17
2023-04-30T04:38:30.009Z,17
2023-04-30T04:39:38.547Z,18
2023-04-30T04:40:46.850Z,18
2023-04-30T04:41:55.182Z,18
2023-04-30T04:43:03.726Z,16.4
2023-04-30T04:44:12.045Z,16.4
2023-04-30T04:45:20.368Z,16.4
2023-04-30T04:46:28.913Z,16.700001
2023-04-30T04:47:37.293Z,16.700001
2023-04-30T04:48:45.537Z,16.700001
2023-04-30T04:49:54.159Z,17.1
2023-04-30T04:51:02.380Z,17.1
2023-04-30T04:52:10.712Z,17.1
2023-04-30T04:53:19.253Z,14.5
2023-04-30T04:54:27.580Z,14.5
2023-04-30T04:55:35.916Z,14.5
2023-04-30T04:56:44.443Z,15.5
2023-04-30T04:57:52.785Z,15.5
2023-04-30T04:59:01.093Z,15.5
2023-04-30T05:00:09.619Z,14.6
2023-04-30T05:01:17.967Z,14.6
2023-04-30T05:02:26.328Z,14.6
2023-04-30T05:03:34.840Z,16.1
2023-04-30T05:04:43.120Z,16.1
2023-04-30T05:05:51.453Z,16.1
2023-04-30T05:07:00.023Z,16.9
2023-04-30T05:08:08.355Z,16.9
2023-04-30T05:09:16.697Z,16.9
2023-04-30T05:10:25.227Z,16.1
2023-04-30T05:11:33.596Z,16.1
2023-04-30T05:12:41.913Z,16.1
2023-04-30T05:13:50.497Z,15.6
2023-04-30T05:14:58.788Z,15.6
2023-04-30T05:16:07.120Z,15.6
2023-04-30T05:17:15.640Z,17
2023-04-30T05:18:23.990Z,17
2023-04-30T05:19:32.316Z,17
2023-04-30T05:20:40.858Z,16.799999
2023-04-30T05:21:49.180Z,16.799999
2023-04-30T05:22:57.492Z,16.799999
2023-04-30T05:24:06.045Z,14.2
2023-04-30T05:25:14.373Z,14.2
2023-04-30T05:26:22.703Z,14.2
2023-04-30T05:27:31.223Z,16.700001
2023-04-30T05:28:39.574Z,16.700001
2023-04-30T05:29:47.989Z,16.700001
2023-04-30T05:30:56.395Z,16
2023-04-30T05:32:04.810Z,16
2023-04-30T05:33:13.104Z,16
2023-04-30T05:34:21.590Z,14
2023-04-30T05:35:29.933Z,14
2023-04-30T05:36:38.266Z,14
2023-04-30T05:37:46.787Z,16.299999
2023-04-30T05:38:55.139Z,16.299999
2023-04-30T05:40:03.478Z,16.299999
2023-04-30T05:41:12.029Z,15.6
2023-04-30T05:42:20.352Z,15.6
2023-04-30T05:43:28.701Z,15.6
2023-04-30T05:44:37.221Z,16.1
2023-04-30T05:45:45.618Z,16.1
2023-04-30T05:46:53.875Z,16.1
2023-04-30T05:48:02.430Z,16.299999
2023-04-30T05:49:10.767Z,16.299999
2023-04-30T05:50:19.083Z,16.299999
2023-04-30T05:51:27.618Z,16.9
2023-04-30T05:52:35.948Z,16.9
2023-04-30T05:53:44.299Z,16.9
2023-04-30T05:54:52.842Z,15.4
2023-04-30T05:56:01.157Z,15.4
2023-04-30T05:57:09.491Z,15.4
2023-04-30T05:58:18.035Z,14.4
2023-04-30T05:59:26.381Z,14.4
2023-04-30T06:00:34.725Z,14.4
2023-04-30T06:01:43.316Z,13.8
2023-04-30T06:02:51.618Z,13.8
2023-04-30T06:03:59.932Z,13.8
2023-04-30T06:05:08.488Z,12.8
2023-04-30T06:06:16.836Z,12.8
2023-04-30T06:07:25.166Z,12.8
2023-04-30T06:08:33.724Z,12.5
2023-04-30T06:09:42.054Z,12.5
2023-04-30T06:10:50.372Z,12.5
2023-04-30T06:11:58.915Z,11.6
2023-04-30T06:13:07.268Z,11.6
2023-04-30T06:14:15.588Z,11.6
2023-04-30T06:15:24.139Z,10.6
2023-04-30T06:16:32.477Z,10.6
2023-04-30T06:17:40.800Z,10.6
2023-04-30T06:18:49.989Z,11.5
2023-04-30T06:19:57.669Z,11.5
2023-04-30T06:21:05.957Z,11.5
2023-04-30T06:22:14.492Z,9.7
2023-04-30T06:23:22.827Z,9.7
2023-04-30T06:24:31.130Z,9.7
2023-04-30T06:25:39.677Z,9.4
2023-04-30T06:26:48.011Z,9.4
2023-04-30T06:27:56.323Z,9.4
2023-04-30T06:29:04.881Z,7.9
2023-04-30T06:30:13.214Z,7.9
2023-04-30T06:31:21.560Z,7.9
2023-04-30T06:32:30.096Z,8.6
2023-04-30T06:33:38.468Z,8.6
2023-04-30T06:34:46.753Z,8.6
2023-04-30T06:35:55.278Z,9.2
2023-04-30T06:37:03.701Z,9.2
2023-04-30T06:38:11.946Z,9.2
2023-04-30T06:39:20.468Z,8
2023-04-30T06:40:28.780Z,8
2023-04-30T06:41:37.115Z,8
2023-04-30T06:42:46.926Z,9.8
2023-04-30T06:43:53.983Z,9.8
2023-04-30T06:45:02.311Z,9.8
2023-04-30T06:46:10.847Z,9.2
2023-04-30T06:47:19.183Z,9.2
2023-04-30T06:48:27.527Z,9.2
2023-04-30T06:49:36.080Z,8.4
2023-04-30T06:50:44.396Z,8.4
2023-04-30T06:51:52.721Z,8.4
2023-04-30T06:53:01.270Z,8.1
2023-04-30T06:54:09.578Z,8.1
2023-04-30T06:55:17.907Z,8.1
2023-04-30T06:56:26.431Z,7.7
2023-04-30T06:57:34.777Z,7.7
2023-04-30T06:58:43.101Z,7.7
2023-04-30T06:59:51.767Z,8.2
2023-04-30T07:00:59.968Z,8.2
2023-04-30T07:02:08.312Z,8.2
2023-04-30T07:03:16.986Z,6.8
2023-04-30T07:04:25.146Z,6.8
2023-04-30T07:05:33.503Z,6.8
2023-04-30T07:06:42.110Z,6.8
2023-04-30T07:07:50.379Z,6.8
2023-04-30T07:08:58.756Z,6.8
2023-04-30T07:10:07.268Z,7.8
2023-04-30T07:11:15.618Z,7.8
2023-04-30T07:12:23.968Z,7.8
2023-04-30T07:13:32.494Z,5.7
2023-04-30T07:14:40.838Z,5.7
2023-04-30T07:15:49.175Z,5.7
2023-04-30T07:16:57.665Z,6.5
2023-04-30T07:18:06.031Z,6.5
2023-04-30T07:19:14.353Z,6.5
2023-04-30T07:20:22.898Z,5.8
2023-04-30T07:21:31.225Z,5.8
2023-04-30T07:22:39.550Z,5.8
2023-04-30T07:23:48.085Z,6.5
2023-04-30T07:24:56.430Z,6.5
2023-04-30T07:26:04.777Z,6.5
2023-04-30T07:27:13.356Z,6.4
2023-04-30T07:28:21.644Z,6.4
2023-04-30T07:29:29.986Z,6.4
2023-04-30T07:30:38.506Z,4.5
2023-04-30T07:31:46.880Z,4.5
2023-04-30T07:32:55.162Z,4.5
2023-04-30T07:34:03.681Z,6.1
2023-04-30T07:35:12.004Z,6.1
2023-04-30T07:36:20.353Z,6.1
2023-04-30T07:37:28.924Z,5.5
2023-04-30T07:38:37.229Z,5.5
2023-04-30T07:39:45.547Z,5.5
2023-04-30T07:40:54.069Z,5.6
2023-04-30T07:42:02.407Z,5.6
2023-04-30T07:43:10.731Z,5.6
2023-04-30T07:44:19.272Z,5.9
2023-04-30T07:45:27.565Z,5.9
2023-04-30T07:46:35.911Z,5.9
2023-04-30T07:47:44.462Z,5.6
2023-04-30T07:48:52.753Z,5.6
2023-04-30T07:50:01.072Z,5.6
2023-04-30T07:51:09.609Z,8
2023-04-30T07:52:17.944Z,8
2023-04-30T07:53:26.577Z,8
2023-04-30T07:54:34.796Z,6.4
2023-04-30T07:55:43.123Z,6.4
2023-04-30T07:56:51.460Z,6.4
2023-04-30T07:58:00.015Z,7.8
2023-04-30T07:59:08.339Z,7.8
2023-04-30T08:00:16.642Z,7.8
2023-04-30T08:01:25.198Z,6.2
2023-04-30T08:02:33.751Z,6.2
2023-04-30T08:03:42.615Z,6.2
2023-04-30T08:04:52.273Z,7.1
2023-04-30T08:06:01.633Z,7.1
2023-04-30T08:07:10.132Z,7.1
2023-04-30T08:08:19.728Z,5.6
2023-04-30T08:09:29.122Z,5.6
2023-04-30T08:10:37.414Z,5.6
2023-04-30T08:11:45.952Z,7.2
2023-04-30T08:12:54.272Z,7.2
2023-04-30T08:14:02.600Z,7.2
2023-04-30T08:15:11.126Z,6.5
2023-04-30T08:16:19.467Z,6.5
2023-04-30T08:17:27.891Z,6.5
2023-04-30T08:18:36.369Z,6.8
2023-04-30T08:19:44.701Z,6.8
2023-04-30T08:20:53.008Z,6.8
2023-04-30T08:22:01.559Z,6.1
2023-04-30T08:23:09.890Z,6.1
2023-04-30T08:24:18.213Z,6.1
2023-04-30T08:25:26.778Z,4.6
2023-04-30T08:26:35.071Z,4.6
2023-04-30T08:27:43.420Z,4.6
2023-04-30T08:28:51.941Z,7
2023-04-30T08:30:00.275Z,7
2023-04-30T08:31:08.599Z,7
2023-04-30T08:32:17.187Z,6.2
2023-04-30T08:33:25.491Z,6.2
2023-04-30T08:34:33.767Z,6.2
2023-04-30T08:35:42.306Z,7.2
2023-04-30T08:36:50.642Z,7.2
2023-04-30T08:37:58.966Z,7.2
2023-04-30T08:39:07.499Z,6.9
2023-04-30T08:40:15.848Z,6.9
2023-04-30T08:41:24.228Z,6.9
2023-04-30T08:42:32.719Z,5.5
2023-04-30T08:43:41.053Z,5.5
2023-04-30T08:44:49.401Z,5.5
2023-04-30T08:45:57.976Z,6.5
2023-04-30T08:47:06.324Z,6.5
2023-04-30T08:48:14.644Z,6.5
2023-04-30T08:49:24.584Z,6.4
2023-04-30T08:50:31.523Z,6.4
2023-04-30T08:51:39.864Z,6.4
2023-04-30T08:52:48.432Z,5.1
2023-04-30T08:53:56.760Z,5.1
2023-04-30T08:55:05.083Z,5.1
2023-04-30T08:56:13.631Z,5
2023-04-30T08:57:22.112Z,5
2023-04-30T08:58:30.320Z,5
2023-04-30T08:59:38.939Z,6.3
2023-04-30T09:00:47.297Z,6.3
2023-04-30T09:01:55.726Z,6.3
2023-04-30T09:03:04.296Z,5.1
2023-04-30T09:04:12.682Z,5.1
2023-04-30T09:05:20.970Z,5.1
2023-04-30T09:06:29.593Z,5.7
2023-04-30T09:07:39.857Z,5.7
2023-04-30T09:08:46.275Z,5.7
2023-04-30T09:09:55.040Z,6.4
2023-04-30T09:11:03.190Z,6.4
2023-04-30T09:12:11.604Z,6.4
2023-04-30T09:13:20.204Z,4.7
2023-04-30T09:14:28.538Z,4.7
2023-04-30T09:15:36.914Z,4.7
2023-04-30T09:16:45.458Z,5.6
2023-04-30T09:17:53.918Z,5.6
2023-04-30T09:19:02.149Z,5.6
2023-04-30T09:20:10.725Z,7
2023-04-30T09:21:19.046Z,7
2023-04-30T09:22:27.395Z,7
2023-04-30T09:23:35.934Z,3.8
2023-04-30T09:24:44.285Z,3.8
2023-04-30T09:25:52.657Z,3.8
2023-04-30T09:27:01.206Z,6.1
2023-04-30T09:28:09.591Z,6.1
2023-04-30T09:29:18.068Z,6.1
2023-04-30T09:30:26.504Z,5.2
2023-04-30T09:31:34.881Z,5.2
2023-04-30T09:32:43.263Z,5.2
2023-04-30T09:33:51.845Z,5.8
2023-04-30T09:35:00.179Z,5.8
2023-04-30T09:36:08.539Z,5.8
2023-04-30T09:37:17.094Z,4.6
2023-04-30T09:38:25.452Z,4.6
2023-04-30T09:39:33.797Z,4.6
2023-04-30T09:40:42.372Z,4.6
2023-04-30T09:41:50.731Z,4.6
2023-04-30T09:42:59.071Z,4.6
2023-04-30T09:44:07.634Z,6.4
2023-04-30T09:45:16.110Z,6.4
2023-04-30T09:46:24.394Z,6.4
2023-04-30T09:47:32.930Z,4.8
2023-04-30T09:48:41.276Z,4.8
2023-04-30T09:49:49.636Z,4.8
2023-04-30T09:50:58.217Z,5.2
2023-04-30T09:52:06.586Z,5.2
2023-04-30T09:53:14.932Z,5.2
2023-04-30T09:54:23.525Z,4.4
2023-04-30T09:55:31.891Z,4.4
2023-04-30T09:56:40.232Z,4.4
2023-04-30T09:57:48.801Z,4.6
2023-04-30T09:58:57.154Z,4.6
2023-04-30T10:00:05.490Z,4.6
2023-04-30T10:01:14.121Z,5.1
2023-04-30T10:02:22.528Z,5.1
2023-04-30T10:03:30.891Z,5.1
2023-04-30T10:04:39.512Z,4
2023-04-30T10:05:47.886Z,4
2023-04-30T10:06:56.248Z,4
2023-04-30T10:08:04.821Z,3.6
2023-04-30T10:09:13.169Z,3.6
2023-04-30T10:10:21.506Z,3.6
2023-04-30T10:11:30.068Z,4.4
2023-04-30T10:12:38.428Z,4.4
2023-04-30T10:13:46.783Z,4.4
2023-04-30T10:14:55.324Z,4.8
2023-04-30T10:16:03.712Z,4.8
2023-04-30T10:17:12.041Z,4.8
2023-04-30T10:18:20.583Z,4.9
2023-04-30T10:19:28.927Z,4.9
2023-04-30T10:20:37.290Z,4.9
2023-04-30T10:21:45.841Z,4.6
2023-04-30T10:22:54.211Z,4.6
2023-04-30T10:24:02.579Z,4.6
2023-04-30T10:25:11.124Z,4.5
2023-04-30T10:26:19.451Z,4.5
2023-04-30T10:27:27.795Z,4.5
2023-04-30T10:28:36.353Z,6.1
2023-04-30T10:29:44.913Z,6.1
2023-04-30T10:30:53.246Z,6.1
2023-04-30T10:32:01.810Z,4.4
2023-04-30T10:33:10.196Z,4.4
2023-04-30T10:34:18.483Z,4.4
2023-04-30T10:35:27.041Z,3.9
2023-04-30T10:36:35.390Z,3.9
2023-04-30T10:37:43.764Z,3.9
2023-04-30T10:38:52.308Z,3.4
2023-04-30T10:40:00.643Z,3.4
2023-04-30T10:41:08.983Z,3.4
2023-04-30T10:42:17.545Z,4.9
2023-04-30T10:43:25.920Z,4.9
2023-04-30T10:44:34.221Z,4.9
2023-04-30T10:45:42.778Z,2.3
2023-04-30T10:46:51.106Z,2.3
2023-04-30T10:47:59.478Z,2.3
2023-04-30T10:49:08.060Z,4.7
2023-04-30T10:50:16.379Z,4.7
2023-04-30T10:51:24.723Z,4.7
2023-04-30T10:52:33.291Z,4.4
2023-04-30T10:53:41.650Z,4.4
2023-04-30T10:54:49.994Z,4.4
2023-04-30T10:55:58.559Z,3.3
2023-04-30T10:57:06.911Z,3.3
2023-04-30T10:58:15.287Z,3.3
2023-04-30T10:59:23.845Z,5
2023-04-30T11:00:32.199Z,5
2023-04-30T11:01:40.582Z,5
2023-04-30T11:02:49.114Z,1.7
2023-04-30T11:03:57.435Z,1.7
2023-04-30T11:05:05.998Z,1.7
2023-04-30T11:06:14.389Z,2.3
2023-04-30T11:07:22.672Z,2.3
2023-04-30T11:08:31.029Z,2.3
2023-04-30T11:09:39.637Z,2.8
2023-04-30T11:10:48.156Z,2.8
2023-04-30T11:11:56.491Z,2.8
2023-04-30T11:13:05.047Z,4
2023-04-30T11:14:13.401Z,4
2023-04-30T11:15:21.748Z,4
2023-04-30T11:16:30.397Z,3.6
2023-04-30T11:17:38.705Z,3.6
2023-04-30T11:18:46.981Z,3.6
2023-04-30T11:19:55.705Z,4.5
2023-04-30T11:21:03.904Z,4.5
2023-04-30T11:22:12.227Z,4.5
2023-04-30T11:23:28.422Z,4.2
2023-04-30T11:24:29.149Z,4.2
2023-04-30T11:25:37.493Z,4.2
2023-04-30T11:26:46.053Z,5.5
2023-04-30T11:27:54.420Z,5.5
2023-04-30T11:29:02.774Z,5.5
2023-04-30T11:30:11.351Z,5.5
2023-04-30T11:31:19.695Z,5.5
2023-04-30T11:32:28.054Z,5.5
2023-04-30T11:33:36.603Z,15.1
2023-04-30T11:34:44.956Z,15.1
2023-04-30T11:35:53.543Z,15.1
2023-04-30T11:37:01.888Z,6.5
2023-04-30T11:38:10.214Z,6.5
2023-04-30T11:39:18.565Z,6.5
2023-04-30T11:40:27.123Z,5.1
2023-04-30T11:41:35.496Z,5.1
2023-04-30T11:42:45.872Z,5.1
2023-04-30T11:43:52.499Z,6.3
2023-04-30T11:45:00.837Z,6.3
2023-04-30T11:46:09.333Z,6.3
2023-04-30T11:47:17.860Z,6
2023-04-30T11:48:26.213Z,6
2023-04-30T11:49:34.567Z,6
2023-04-30T11:50:43.130Z,5.3
2023-04-30T11:51:51.474Z,5.3
2023-04-30T11:52:59.937Z,5.3
2023-04-30T11:54:08.381Z,6.8
2023-04-30T11:55:16.733Z,6.8
2023-04-30T11:56:25.079Z,6.8
2023-04-30T11:57:33.659Z,7
2023-04-30T11:58:42.001Z,7
2023-04-30T11:59:50.350Z,7
2023-04-30T12:00:58.912Z,4.4
2023-04-30T12:02:07.314Z,4.4
2023-04-30T12:03:15.680Z,4.4
2023-04-30T12:04:24.192Z,6.8
2023-04-30T12:05:32.516Z,6.8
2023-04-30T12:06:40.898Z,6.8
2023-04-30T12:07:49.443Z,4.4
2023-04-30T12:08:57.832Z,4.4
2023-04-30T12:10:06.192Z,4.4
2023-04-30T12:11:14.726Z,4.7
2023-04-30T12:12:23.085Z,4.7
2023-04-30T12:13:31.434Z,4.7
2023-04-30T12:14:39.990Z,3.7
2023-04-30T12:15:48.329Z,3.7
2023-04-30T12:16:56.841Z,3.7
2023-04-30T12:18:05.385Z,4.1
2023-04-30T12:19:13.646Z,4.1
2023-04-30T12:20:22.026Z,4.1
2023-04-30T12:21:30.568Z,7
2023-04-30T12:22:38.921Z,7
2023-04-30T12:23:47.268Z,7
2023-04-30T12:24:55.871Z,5.9
2023-04-30T12:26:04.183Z,5.9
2023-04-30T12:27:12.545Z,5.9
2023-04-30T12:28:21.114Z,5.8
2023-04-30T12:29:29.488Z,5.8
2023-04-30T12:30:37.849Z,5.8
2023-04-30T12:31:46.457Z,6.4
2023-04-30T12:32:54.864Z,6.4
2023-04-30T12:34:03.154Z,6.4
2023-04-30T12:35:11.707Z,4
2023-04-30T12:36:20.099Z,4
2023-04-30T12:37:28.456Z,4
2023-04-30T12:38:37.005Z,5.2
2023-04-30T12:39:45.366Z,5.2
2023-04-30T12:40:53.747Z,5.2
2023-04-30T12:42:02.309Z,3.9
2023-04-30T12:43:10.666Z,3.9
2023-04-30T12:44:19.034Z,3.9
2023-04-30T12:45:27.580Z,4.2
2023-04-30T12:46:35.991Z,4.2
2023-04-30T12:47:44.379Z,4.2
2023-04-30T12:48:52.938Z,3.9
2023-04-30T12:50:01.296Z,3.9
2023-04-30T12:51:09.660Z,3.9
2023-04-30T12:52:18.223Z,7.1
2023-04-30T12:53:26.579Z,7.1
2023-04-30T12:54:34.941Z,7.1
2023-04-30T12:55:43.503Z,4.4
2023-04-30T12:56:51.878Z,4.4
2023-04-30T12:58:00.213Z,4.4
2023-04-30T12:59:08.771Z,4.3
2023-04-30T13:00:17.156Z,4.3
2023-04-30T13:01:25.559Z,4.3
2023-04-30T13:02:34.090Z,3.3
2023-04-30T13:03:42.740Z,3.3
2023-04-30T13:04:50.727Z,3.3
2023-04-30T13:05:59.326Z,3.9
2023-04-30T13:07:07.673Z,3.9
2023-04-30T13:08:16.018Z,3.9
2023-04-30T13:09:24.565Z,4.2
2023-04-30T13:10:32.897Z,4.2
2023-04-30T13:11:41.239Z,4.2
2023-04-30T13:12:49.825Z,3.5
2023-04-30T13:13:58.140Z,3.5
2023-04-30T13:15:06.490Z,3.5
2023-04-30T13:16:15.083Z,4.6
2023-04-30T13:17:23.430Z,4.6
2023-04-30T13:18:31.755Z,4.6
2023-04-30T13:19:40.300Z,4.9
2023-04-30T13:20:48.660Z,4.9
2023-04-30T13:21:57.037Z,4.9
2023-04-30T13:23:05.586Z,4
2023-04-30T13:24:13.933Z,4
2023-04-30T13:25:22.301Z,4
2023-04-30T13:26:30.884Z,3.6
2023-04-30T13:27:39.245Z,3.6
2023-04-30T13:28:47.623Z,3.6
2023-04-30T13:29:56.401Z,3.6
2023-04-30T13:31:04.508Z,3.6
2023-04-30T13:32:12.836Z,3.6
2023-04-30T13:33:22.118Z,3.5
2023-04-30T13:34:30.485Z,3.5
2023-04-30T13:35:38.847Z,3.5
2023-04-30T13:36:47.415Z,5.1
2023-04-30T13:37:55.745Z,5.1
2023-04-30T13:39:04.086Z,5.1
2023-04-30T13:40:12.612Z,3.5
2023-04-30T13:41:20.964Z,3.5
2023-04-30T13:42:29.311Z,3.5
2023-04-30T13:43:39.099Z,2.9
2023-04-30T13:44:46.236Z,2.9
2023-04-30T13:45:54.538Z,2.9
2023-04-30T13:47:03.185Z,3.3
2023-04-30T13:48:11.450Z,3.3
2023-04-30T13:49:19.796Z,3.3
2023-04-30T13:50:28.376Z,2.9
2023-04-30T13:51:36.707Z,2.9
2023-04-30T13:52:45.104Z,2.9
2023-04-30T13:53:53.630Z,3
2023-04-30T13:55:01.967Z,3
2023-04-30T13:56:10.352Z,3
2023-04-30T13:57:18.928Z,2.6
2023-04-30T13:58:27.298Z,2.6
2023-04-30T13:59:35.662Z,2.6
2023-04-30T14:00:44.222Z,1.2
2023-04-30T14:01:52.539Z,1.2
2023-04-30T14:03:00.938Z,1.2
2023-04-30T14:04:09.530Z,2.4
2023-04-30T14:05:17.766Z,2.4
2023-04-30T14:06:26.135Z,2.4
2023-04-30T14:07:34.675Z,3.4
2023-04-30T14:08:43.023Z,3.4
2023-04-30T14:09:51.362Z,3.4
2023-04-30T14:10:59.909Z,3.7
2023-04-30T14:12:08.246Z,3.7
2023-04-30T14:13:16.590Z,3.7
2023-04-30T14:14:25.132Z,4.5
2023-04-30T14:15:33.480Z,4.5
2023-04-30T14:16:42.059Z,4.5
2023-04-30T14:17:50.420Z,3.1
2023-04-30T14:18:58.735Z,3.1
2023-04-30T14:20:07.071Z,3.1
2023-04-30T14:21:15.637Z,2.5
2023-04-30T14:22:23.988Z,2.5
2023-04-30T14:23:32.326Z,2.5
2023-04-30T14:24:40.878Z,1.8
2023-04-30T14:25:49.239Z,1.8
2023-04-30T14:26:57.592Z,1.8
2023-04-30T14:28:06.156Z,2.8
2023-04-30T14:29:14.486Z,2.8
2023-04-30T14:30:22.805Z,2.8
2023-04-30T14:31:31.396Z,2.5
2023-04-30T14:32:39.800Z,2.5
2023-04-30T14:33:48.082Z,2.5
2023-04-30T14:34:56.645Z,2
2023-04-30T14:36:04.976Z,2
2023-04-30T14:37:13.367Z,2
2023-04-30T14:38:21.901Z,2.5
2023-04-30T14:39:30.256Z,2.5
2023-04-30T14:40:38.616Z,2.5
2023-04-30T14:41:47.161Z,4
2023-04-30T14:42:55.491Z,4
2023-04-30T14:44:03.833Z,4
2023-04-30T14:45:12.395Z,3.6
2023-04-30T14:46:20.759Z,3.6
2023-04-30T14:47:29.105Z,3.6
2023-04-30T14:48:37.692Z,2.7
2023-04-30T14:49:46.016Z,2.7
2023-04-30T14:50:54.336Z,2.7
2023-04-30T14:52:02.905Z,3.9
2023-04-30T14:53:11.252Z,3.9
2023-04-30T14:54:19.624Z,3.9
2023-04-30T14:55:28.166Z,3.7
2023-04-30T14:56:36.511Z,3.7
2023-04-30T14:57:44.868Z,3.7
2023-04-30T14:58:53.401Z,2.7
2023-04-30T15:00:01.812Z,2.7
2023-04-30T15:01:10.177Z,2.7
2023-04-30T15:02:18.767Z,2.6
2023-04-30T15:03:27.121Z,2.6
2023-04-30T15:04:35.414Z,2.6
2023-04-30T15:05:43.952Z,4.8
2023-04-30T15:39:10.893Z,0
2023-04-30T15:40:19.113Z,0
2023-04-30T15:41:27.484Z,0
2023-04-30T15:42:36.053Z,3.6
2023-04-30T15:43:44.396Z,3.6
2023-04-30T15:44:52.732Z,3.6
2023-04-30T15:46:01.269Z,3